createdAt,value
2023-08-22T00:14:39.528Z,14
2023-08-22T00:43:46.571Z,15
2023-08-22T01:12:50.200Z,18
2023-08-22T01:41:53.527Z,13
2023-08-22T02:10:43.589Z,18
2023-08-22T02:39:51.723Z,14
2023-08-22T03:09:05.862Z,17
2023-08-22T03:38:04.482Z,18
2023-08-22T04:07:03.410Z,18
2023-08-22T04:36:24.417Z,19
2023-08-22T05:05:35.231Z,18
2023-08-22T05:34:18.085Z,17
2023-08-22T06:02:42.834Z,17
2023-08-22T06:31:14.361Z,17
2023-08-22T06:59:42.089Z,13
2023-08-22T07:28:07.884Z,13
2023-08-22T07:56:25.966Z,13
2023-08-22T08:24:52.958Z,11
2023-08-22T08:53:17.494Z,13
2023-08-22T09:21:42.281Z,13
2023-08-22T09:50:06.451Z,11
2023-08-22T10:19:09.693Z,10
2023-08-22T10:48:13.854Z,10
2023-08-22T11:17:09.176Z,10
2023-08-22T11:46:13.850Z,10
2023-08-22T12:15:17.663Z,8
2023-08-22T12:44:20.362Z,8
2023-08-22T13:13:26.562Z,8
2023-08-22T13:42:32.991Z,7
2023-08-22T14:11:33.832Z,7
2023-08-22T14:40:45.354Z,8
2023-08-22T15:09:55.094Z,8
2023-08-22T15:38:59.734Z,7
2023-08-22T16:08:04.290Z,7
2023-08-22T16:37:11.621Z,7
2023-08-22T17:06:09.716Z,7
2023-08-22T17:35:17.548Z,7
2023-08-22T18:04:27.436Z,8
2023-08-22T18:33:30.248Z,10
2023-08-22T19:02:28.624Z,8
2023-08-22T19:31:31.463Z,10
2023-08-22T20:00:29.655Z,10
2023-08-22T20:29:35.885Z,10
2023-08-22T20:58:34.847Z,9
2023-08-22T21:27:38.089Z,10
2023-08-22T21:56:32.936Z,18
2023-08-22T22:25:29.107Z,18
2023-08-22T22:53:47.266Z,10
2023-08-22T23:22:11.441Z,13
2023-08-22T23:51:16.633Z,20
